Alexander von Humboldt II — DDKK2 — position and weather

sailwx.info

Track history (hours):
 
Tides and Currents Weather Stations Pressure Air Temp Water Temp Dewpoint Dewpoint Depression Visibility Wind Speed Wind Dir Waves Ship Positions

Alexander von Humboldt II

Ship's website: https://www.alex-2.de/en/

Last reported at 2020-Aug-07 03:31 UTC. Time now 2020-Aug-07 08:59 UTC.
Position N 53°57' E 010°52'.

Length 65 m; draft 4.8 m.

Type: Sailing vessel. MMSI: 218768000.

Date/timePositionNaut miles runAvg speedWind from/ knotsBaromVisibWave heightAir tempDewpointWater temp
2020-Aug-07 03:31N 53°57' E 010°52'0 0.0
2020-Aug-07 00:58N 53°57' E 010°52'0 0.0
2020-Aug-06 23:25N 53°57' E 010°52'4 0.1
2020-Aug-05 00:22N 54°01' E 010°48'10 0.5
2020-Aug-04 05:00N 54°07' E 011°01'6 2.5
2020-Aug-04 02:40N 54°11' E 011°09'20 4.9
2020-Aug-03 22:30N 54°23' E 011°37'7 1.1
2020-Aug-03 16:28N 54°21' E 011°26'2 2.0
2020-Aug-03 15:26N 54°20' E 011°23'2 0.9
2020-Aug-03 13:01N 54°21' E 011°20'9 4.5
2020-Aug-03 11:00N 54°29' E 011°25'1 0.6
2020-Aug-03 10:00N 54°30' E 011°25'3 6.2
2020-Aug-03 09:30N 54°27' E 011°23'2 3.8
2020-Aug-03 09:00N 54°25' E 011°22'9 3.8
2020-Aug-03 06:36N 54°20' E 011°09'23 1.8
2020-Aug-02 17:30N 54°22' E 011°49'5 5.2
2020-Aug-02 16:30N 54°21' E 011°57'8 2.6
2020-Aug-02 13:29N 54°23' E 012°11'3 3.4
2020-Aug-02 12:44N 54°20' E 012°13'1 3.5
2020-Aug-02 12:30N 54°20' E 012°14'3 1.4
2020-Aug-02 10:31N 54°21' E 012°10'2 4.8
2020-Aug-02 10:00N 54°19' E 012°12'12 3.3
2020-Aug-02 06:30N 54°30' E 012°19'7 4.5
2020-Aug-02 05:00N 54°36' E 012°24'2 4.5
2020-Aug-02 04:30N 54°38' E 012°25'1 2.7
2020-Aug-02 04:01N 54°40' E 012°25'3 2.8
2020-Aug-02 03:00N 54°37' E 012°25'5 4.5
2020-Aug-02 01:49N 54°34' E 012°33'6 5.4
2020-Aug-02 00:40N 54°33' E 012°43'55 6.4
2020-Aug-01 16:00N 54°54' E 014°11'7 3.3
2020-Aug-01 14:00N 54°57' E 014°21'6 2.6
2020-Aug-01 11:28N 54°56' E 014°33'6 3.1
2020-Aug-01 09:28N 54°56' E 014°43'17 4.4
2020-Aug-01 05:30N 55°03' E 015°11'12 4.8
2020-Aug-01 03:00N 55°15' E 015°12'2 4.9
2020-Aug-01 02:30N 55°18' E 015°12'2 0.8
2020-Aug-01 00:23N 55°19' E 015°12'0 0.0
2020-Jul-31 23:59N 55°19' E 015°12'0 0.0
2020-Jul-31 21:29N 55°19' E 015°12'0 0.0
2020-Jul-31 17:59N 55°19' E 015°12'0 0.0
2020-Jul-31 15:23N 55°19' E 015°12'9 0.8
2020-Jul-31 04:37N 55°24' E 014°58'4 5.7
2020-Jul-31 03:55N 55°24' E 014°51'17 5.7
2020-Jul-31 01:00N 55°15' E 014°28'4 7.7
2020-Jul-31 00:30N 55°12' E 014°23'60 5.5
2020-Jul-30 13:31N 55°22' E 012°39'23 7.7
2020-Jul-30 10:31N 55°45' E 012°41'11 7.6
2020-Jul-30 09:01N 55°57' E 012°38'4 7.5
2020-Jul-30 08:30N 56°00' E 012°39'92 8.0
2020-Jul-29 21:00N 57°23' E 011°26'5 9.1
2020-Jul-29 20:30N 57°27' E 011°22'9 8.8
2020-Jul-29 19:30N 57°32' E 011°09'18 6.0
2020-Jul-29 16:26N 57°39' E 010°37'0 0.0
2020-Jul-29 14:26N 57°39' E 010°37'6 0.6
2020-Jul-29 05:01N 57°42' E 010°45'6 3.1
2020-Jul-29 03:01N 57°48' E 010°43'72 9.5
2020-Jul-28 19:27N 57°37' E 008°30'20 8.1
2020-Jul-28 16:59N 57°37' E 007°53'12 6.2
2020-Jul-28 15:00N 57°43' E 007°33'10 4.9
2020-Jul-28 13:00N 57°49' E 007°19'8 5.0
2020-Jul-28 11:31N 57°54' E 007°07'3 6.2
2020-Jul-28 11:00N 57°51' E 007°11'4 8.0
2020-Jul-28 10:30N 57°49' E 007°17'7 7.2
2020-Jul-28 09:30N 57°44' E 007°27'18 5.8
2020-Jul-28 06:30N 57°32' E 007°52'6 5.6
2020-Jul-28 05:30N 57°28' E 007°59'  
Track history (hours):
 
Tides and Currents Weather Stations Pressure Air Temp Water Temp Dewpoint Dewpoint Depression Visibility Wind Speed Wind Dir Waves Ship Positions

Alexander von Humboldt II

Ship's website: https://www.alex-2.de/en/

Last reported at 2020-Aug-07 03:31 UTC. Time now 2020-Aug-07 08:59 UTC.
Position N 53°57' E 010°52'.

Length 65 m; draft 4.8 m.

Type: Sailing vessel. MMSI: 218768000.

Date/timePositionNaut miles runAvg speedWind from/ knotsBaromVisibWave heightAir tempDewpointWater temp
2020-Aug-07 03:31N 53°57' E 010°52'0 0.0
2020-Aug-07 00:58N 53°57' E 010°52'0 0.0
2020-Aug-06 23:25N 53°57' E 010°52'4 0.1
2020-Aug-05 00:22N 54°01' E 010°48'10 0.5
2020-Aug-04 05:00N 54°07' E 011°01'6 2.5
2020-Aug-04 02:40N 54°11' E 011°09'20 4.9
2020-Aug-03 22:30N 54°23' E 011°37'7 1.1
2020-Aug-03 16:28N 54°21' E 011°26'2 2.0
2020-Aug-03 15:26N 54°20' E 011°23'2 0.9
2020-Aug-03 13:01N 54°21' E 011°20'9 4.5
2020-Aug-03 11:00N 54°29' E 011°25'1 0.6
2020-Aug-03 10:00N 54°30' E 011°25'3 6.2
2020-Aug-03 09:30N 54°27' E 011°23'2 3.8
2020-Aug-03 09:00N 54°25' E 011°22'9 3.8
2020-Aug-03 06:36N 54°20' E 011°09'23 1.8
2020-Aug-02 17:30N 54°22' E 011°49'5 5.2
2020-Aug-02 16:30N 54°21' E 011°57'8 2.6
2020-Aug-02 13:29N 54°23' E 012°11'3 3.4
2020-Aug-02 12:44N 54°20' E 012°13'1 3.5
2020-Aug-02 12:30N 54°20' E 012°14'3 1.4
2020-Aug-02 10:31N 54°21' E 012°10'2 4.8
2020-Aug-02 10:00N 54°19' E 012°12'12 3.3
2020-Aug-02 06:30N 54°30' E 012°19'7 4.5
2020-Aug-02 05:00N 54°36' E 012°24'2 4.5
2020-Aug-02 04:30N 54°38' E 012°25'1 2.7
2020-Aug-02 04:01N 54°40' E 012°25'3 2.8
2020-Aug-02 03:00N 54°37' E 012°25'5 4.5
2020-Aug-02 01:49N 54°34' E 012°33'6 5.4
2020-Aug-02 00:40N 54°33' E 012°43'55 6.4
2020-Aug-01 16:00N 54°54' E 014°11'7 3.3
2020-Aug-01 14:00N 54°57' E 014°21'6 2.6
2020-Aug-01 11:28N 54°56' E 014°33'6 3.1
2020-Aug-01 09:28N 54°56' E 014°43'17 4.4
2020-Aug-01 05:30N 55°03' E 015°11'12 4.8
2020-Aug-01 03:00N 55°15' E 015°12'2 4.9
2020-Aug-01 02:30N 55°18' E 015°12'2 0.8
2020-Aug-01 00:23N 55°19' E 015°12'0 0.0
2020-Jul-31 23:59N 55°19' E 015°12'0 0.0
2020-Jul-31 21:29N 55°19' E 015°12'0 0.0
2020-Jul-31 17:59N 55°19' E 015°12'0 0.0
2020-Jul-31 15:23N 55°19' E 015°12'9 0.8
2020-Jul-31 04:37N 55°24' E 014°58'4 5.7
2020-Jul-31 03:55N 55°24' E 014°51'17 5.7
2020-Jul-31 01:00N 55°15' E 014°28'4 7.7
2020-Jul-31 00:30N 55°12' E 014°23'60 5.5
2020-Jul-30 13:31N 55°22' E 012°39'23 7.7
2020-Jul-30 10:31N 55°45' E 012°41'11 7.6
2020-Jul-30 09:01N 55°57' E 012°38'4 7.5
2020-Jul-30 08:30N 56°00' E 012°39'92 8.0
2020-Jul-29 21:00N 57°23' E 011°26'5 9.1
2020-Jul-29 20:30N 57°27' E 011°22'9 8.8
2020-Jul-29 19:30N 57°32' E 011°09'18 6.0
2020-Jul-29 16:26N 57°39' E 010°37'0 0.0
2020-Jul-29 14:26N 57°39' E 010°37'6 0.6
2020-Jul-29 05:01N 57°42' E 010°45'6 3.1
2020-Jul-29 03:01N 57°48' E 010°43'72 9.5
2020-Jul-28 19:27N 57°37' E 008°30'20 8.1
2020-Jul-28 16:59N 57°37' E 007°53'12 6.2
2020-Jul-28 15:00N 57°43' E 007°33'10 4.9
2020-Jul-28 13:00N 57°49' E 007°19'8 5.0
2020-Jul-28 11:31N 57°54' E 007°07'3 6.2
2020-Jul-28 11:00N 57°51' E 007°11'4 8.0
2020-Jul-28 10:30N 57°49' E 007°17'7 7.2
2020-Jul-28 09:30N 57°44' E 007°27'18 5.8
2020-Jul-28 06:30N 57°32' E 007°52'6 5.6
2020-Jul-28 05:30N 57°28' E 007°59'  

Dump ship's entire track history